sensor_id;sensor_type;location;lat;lon;timestamp;temperature;humidity
29551;DHT22;16488;52.396;10.696;2022-10-16T00:00:31;15.20;99.90
29551;DHT22;16488;52.396;10.696;2022-10-16T00:02:56;15.20;99.90
29551;DHT22;16488;52.396;10.696;2022-10-16T00:05:22;15.20;99.90
29551;DHT22;16488;52.396;10.696;2022-10-16T00:07:47;15.00;99.90
29551;DHT22;16488;52.396;10.696;2022-10-16T00:10:13;14.90;99.90
29551;DHT22;16488;52.396;10.696;2022-10-16T00:12:39;14.70;99.90
29551;DHT22;16488;52.396;10.696;2022-10-16T00:15:05;14.70;99.90
29551;DHT22;16488;52.396;10.696;2022-10-16T00:17:31;14.60;99.90
29551;DHT22;16488;52.396;10.696;2022-10-16T00:19:56;14.60;99.90
29551;DHT22;16488;52.396;10.696;2022-10-16T00:22:22;14.40;99.90
29551;DHT22;16488;52.396;10.696;2022-10-16T00:24:48;14.30;99.90
29551;DHT22;16488;52.396;10.696;2022-10-16T00:27:13;14.30;99.90
29551;DHT22;16488;52.396;10.696;2022-10-16T00:29:39;14.30;99.90
29551;DHT22;16488;52.396;10.696;2022-10-16T00:32:04;14.30;99.90
29551;DHT22;16488;52.396;10.696;2022-10-16T00:34:30;14.20;99.90
29551;DHT22;16488;52.396;10.696;2022-10-16T00:36:55;14.20;99.90
29551;DHT22;16488;52.396;10.696;2022-10-16T00:39:21;14.10;99.90
29551;DHT22;16488;52.396;10.696;2022-10-16T00:41:47;14.10;99.90
29551;DHT22;16488;52.396;10.696;2022-10-16T00:44:46;14.20;99.90
29551;DHT22;16488;52.396;10.696;2022-10-16T00:47:19;14.20;99.90
29551;DHT22;16488;52.396;10.696;2022-10-16T00:49:47;14.20;99.90
29551;DHT22;16488;52.396;10.696;2022-10-16T00:52:14;14.20;99.90
29551;DHT22;16488;52.396;10.696;2022-10-16T00:54:40;14.20;99.90
29551;DHT22;16488;52.396;10.696;2022-10-16T00:57:06;14.10;99.90
29551;DHT22;16488;52.396;10.696;2022-10-16T00:59:38;14.10;99.90
29551;DHT22;16488;52.396;10.696;2022-10-16T01:02:06;14.00;99.90
29551;DHT22;16488;52.396;10.696;2022-10-16T01:04:41;14.00;99.90
29551;DHT22;16488;52.396;10.696;2022-10-16T01:09:59;14.00;99.90
29551;DHT22;16488;52.396;10.696;2022-10-16T01:12:52;13.90;99.90
29551;DHT22;16488;52.396;10.696;2022-10-16T01:15:23;13.90;99.90
29551;DHT22;16488;52.396;10.696;2022-10-16T01:17:55;13.80;99.90
29551;DHT22;16488;52.396;10.696;2022-10-16T01:20:30;13.80;99.90
29551;DHT22;16488;52.396;10.696;2022-10-16T01:26:10;13.50;99.90
29551;DHT22;16488;52.396;10.696;2022-10-16T01:28:51;13.60;99.90
29551;DHT22;16488;52.396;10.696;2022-10-16T01:31:24;13.60;99.90
29551;DHT22;16488;52.396;10.696;2022-10-16T01:33:58;13.60;99.90
29551;DHT22;16488;52.396;10.696;2022-10-16T01:36:35;13.60;99.90
29551;DHT22;16488;52.396;10.696;2022-10-16T01:39:03;13.70;99.90
29551;DHT22;16488;52.396;10.696;2022-10-16T01:41:34;13.70;99.90
29551;DHT22;16488;52.396;10.696;2022-10-16T01:44:20;13.60;99.90
29551;DHT22;16488;52.396;10.696;2022-10-16T01:46:49;13.60;99.90
29551;DHT22;16488;52.396;10.696;2022-10-16T01:49:17;13.60;99.90
29551;DHT22;16488;52.396;10.696;2022-10-16T01:51:45;13.60;99.90
29551;DHT22;16488;52.396;10.696;2022-10-16T01:54:13;13.60;99.90
29551;DHT22;16488;52.396;10.696;2022-10-16T01:56:41;13.60;99.90
29551;DHT22;16488;52.396;10.696;2022-10-16T01:59:11;13.60;99.90
29551;DHT22;16488;52.396;10.696;2022-10-16T02:01:40;13.70;99.90
29551;DHT22;16488;52.396;10.696;2022-10-16T02:04:23;13.70;99.90
29551;DHT22;16488;52.396;10.696;2022-10-16T02:06:52;13.60;99.90
29551;DHT22;16488;52.396;10.696;2022-10-16T02:09:18;13.60;99.90
29551;DHT22;16488;52.396;10.696;2022-10-16T02:11:44;13.60;99.90
29551;DHT22;16488;52.396;10.696;2022-10-16T02:14:10;13.60;99.90
29551;DHT22;16488;52.396;10.696;2022-10-16T02:16:44;13.60;99.90
29551;DHT22;16488;52.396;10.696;2022-10-16T02:19:11;13.60;99.90
29551;DHT22;16488;52.396;10.696;2022-10-16T02:21:44;13.50;99.90
29551;DHT22;16488;52.396;10.696;2022-10-16T02:27:03;13.60;99.90
29551;DHT22;16488;52.396;10.696;2022-10-16T02:29:33;13.60;99.90
29551;DHT22;16488;52.396;10.696;2022-10-16T02:32:04;13.60;99.90
29551;DHT22;16488;52.396;10.696;2022-10-16T02:34:32;13.60;99.90
29551;DHT22;16488;52.396;10.696;2022-10-16T02:37:00;13.60;99.90
29551;DHT22;16488;52.396;10.696;2022-10-16T02:39:28;13.60;99.90
29551;DHT22;16488;52.396;10.696;2022-10-16T02:41:54;13.60;99.90
29551;DHT22;16488;52.396;10.696;2022-10-16T02:44:19;13.70;99.90
29551;DHT22;16488;52.396;10.696;2022-10-16T02:46:45;13.70;99.90
29551;DHT22;16488;52.396;10.696;2022-10-16T02:49:11;13.70;99.90
29551;DHT22;16488;52.396;10.696;2022-10-16T02:51:36;13.70;99.90
29551;DHT22;16488;52.396;10.696;2022-10-16T02:54:02;13.70;99.90
29551;DHT22;16488;52.396;10.696;2022-10-16T02:56:28;13.70;99.90
29551;DHT22;16488;52.396;10.696;2022-10-16T02:58:55;13.80;99.90
29551;DHT22;16488;52.396;10.696;2022-10-16T03:01:21;13.80;99.90
29551;DHT22;16488;52.396;10.696;2022-10-16T03:03:46;13.90;99.90
29551;DHT22;16488;52.396;10.696;2022-10-16T03:06:12;13.90;99.90
29551;DHT22;16488;52.396;10.696;2022-10-16T03:08:37;13.90;99.90
29551;DHT22;16488;52.396;10.696;2022-10-16T03:11:03;13.90;99.90
29551;DHT22;16488;52.396;10.696;2022-10-16T03:13:28;13.90;99.90
29551;DHT22;16488;52.396;10.696;2022-10-16T03:15:54;13.90;99.90
29551;DHT22;16488;52.396;10.696;2022-10-16T03:18:19;14.00;99.90
29551;DHT22;16488;52.396;10.696;2022-10-16T03:20:45;14.00;99.90
29551;DHT22;16488;52.396;10.696;2022-10-16T03:23:11;14.00;99.90
29551;DHT22;16488;52.396;10.696;2022-10-16T03:25:37;14.00;99.90
29551;DHT22;16488;52.396;10.696;2022-10-16T03:28:03;14.00;99.90
29551;DHT22;16488;52.396;10.696;2022-10-16T03:30:29;14.00;99.90
29551;DHT22;16488;52.396;10.696;2022-10-16T03:32:54;14.00;99.90
29551;DHT22;16488;52.396;10.696;2022-10-16T03:35:21;13.90;99.90
29551;DHT22;16488;52.396;10.696;2022-10-16T03:37:47;13.90;99.90
29551;DHT22;16488;52.396;10.696;2022-10-16T03:40:12;13.90;99.90
29551;DHT22;16488;52.396;10.696;2022-10-16T03:42:38;13.90;99.90
29551;DHT22;16488;52.396;10.696;2022-10-16T03:45:04;13.80;99.90
29551;DHT22;16488;52.396;10.696;2022-10-16T03:47:30;13.80;99.90
29551;DHT22;16488;52.396;10.696;2022-10-16T03:49:58;13.70;99.90
29551;DHT22;16488;52.396;10.696;2022-10-16T03:52:24;13.70;99.90
29551;DHT22;16488;52.396;10.696;2022-10-16T03:54:49;13.70;99.90
29551;DHT22;16488;52.396;10.696;2022-10-16T03:57:15;13.70;99.90
29551;DHT22;16488;52.396;10.696;2022-10-16T03:59:41;13.60;99.90
29551;DHT22;16488;52.396;10.696;2022-10-16T04:02:06;13.70;99.90
29551;DHT22;16488;52.396;10.696;2022-10-16T04:04:32;13.60;99.90
29551;DHT22;16488;52.396;10.696;2022-10-16T04:06:57;13.60;99.90
29551;DHT22;16488;52.396;10.696;2022-10-16T04:09:23;13.50;99.90
29551;DHT22;16488;52.396;10.696;2022-10-16T04:11:48;13.40;99.90
29551;DHT22;16488;52.396;10.696;2022-10-16T04:14:14;13.30;99.90
29551;DHT22;16488;52.396;10.696;2022-10-16T04:16:40;13.30;99.90
29551;DHT22;16488;52.396;10.696;2022-10-16T04:19:05;13.10;99.90
29551;DHT22;16488;52.396;10.696;2022-10-16T04:21:31;13.00;99.90
29551;DHT22;16488;52.396;10.696;2022-10-16T04:23:56;13.00;99.90
29551;DHT22;16488;52.396;10.696;2022-10-16T04:26:22;13.00;99.90
29551;DHT22;16488;52.396;10.696;2022-10-16T04:28:47;12.80;99.90
29551;DHT22;16488;52.396;10.696;2022-10-16T04:31:13;12.70;99.90
29551;DHT22;16488;52.396;10.696;2022-10-16T04:33:38;12.50;99.90
29551;DHT22;16488;52.396;10.696;2022-10-16T04:36:04;12.40;99.90
29551;DHT22;16488;52.396;10.696;2022-10-16T04:38:30;12.40;99.90
29551;DHT22;16488;52.396;10.696;2022-10-16T04:40:56;12.30;99.90
29551;DHT22;16488;52.396;10.696;2022-10-16T04:43:21;12.30;99.90
29551;DHT22;16488;52.396;10.696;2022-10-16T04:45:47;12.30;99.90
29551;DHT22;16488;52.396;10.696;2022-10-16T04:48:13;12.30;99.90
29551;DHT22;16488;52.396;10.696;2022-10-16T04:50:38;12.30;99.90
29551;DHT22;16488;52.396;10.696;2022-10-16T04:53:04;12.30;99.90
29551;DHT22;16488;52.396;10.696;2022-10-16T04:55:30;12.30;99.90
29551;DHT22;16488;52.396;10.696;2022-10-16T04:57:55;12.20;99.90
29551;DHT22;16488;52.396;10.696;2022-10-16T05:00:21;12.20;99.90
29551;DHT22;16488;52.396;10.696;2022-10-16T05:02:49;12.10;99.90
29551;DHT22;16488;52.396;10.696;2022-10-16T05:05:14;12.10;99.90
29551;DHT22;16488;52.396;10.696;2022-10-16T05:07:40;12.00;99.90
29551;DHT22;16488;52.396;10.696;2022-10-16T05:10:06;11.90;99.90
29551;DHT22;16488;52.396;10.696;2022-10-16T05:12:32;11.90;99.90
29551;DHT22;16488;52.396;10.696;2022-10-16T05:14:57;11.90;99.90
29551;DHT22;16488;52.396;10.696;2022-10-16T05:17:24;12.00;99.90
29551;DHT22;16488;52.396;10.696;2022-10-16T05:19:50;12.10;99.90
29551;DHT22;16488;52.396;10.696;2022-10-16T05:22:16;12.00;99.90
29551;DHT22;16488;52.396;10.696;2022-10-16T05:24:41;11.80;99.90
29551;DHT22;16488;52.396;10.696;2022-10-16T05:27:07;11.80;99.90
29551;DHT22;16488;52.396;10.696;2022-10-16T05:29:33;11.70;99.90
29551;DHT22;16488;52.396;10.696;2022-10-16T05:31:58;11.60;99.90
29551;DHT22;16488;52.396;10.696;2022-10-16T05:34:24;11.60;99.90
29551;DHT22;16488;52.396;10.696;2022-10-16T05:36:49;11.60;99.90
29551;DHT22;16488;52.396;10.696;2022-10-16T05:39:15;11.70;99.90
29551;DHT22;16488;52.396;10.696;2022-10-16T05:41:42;11.80;99.90
29551;DHT22;16488;52.396;10.696;2022-10-16T05:44:07;11.80;99.90
29551;DHT22;16488;52.396;10.696;2022-10-16T05:46:33;11.90;99.90
29551;DHT22;16488;52.396;10.696;2022-10-16T05:48:58;12.00;99.90
29551;DHT22;16488;52.396;10.696;2022-10-16T05:51:24;12.00;99.90
29551;DHT22;16488;52.396;10.696;2022-10-16T05:53:49;12.00;99.90
29551;DHT22;16488;52.396;10.696;2022-10-16T05:56:15;12.00;99.90
29551;DHT22;16488;52.396;10.696;2022-10-16T05:58:41;12.00;99.90
29551;DHT22;16488;52.396;10.696;2022-10-16T06:01:11;12.00;99.90
29551;DHT22;16488;52.396;10.696;2022-10-16T06:03:36;12.00;99.90
29551;DHT22;16488;52.396;10.696;2022-10-16T06:06:19;12.00;99.90
29551;DHT22;16488;52.396;10.696;2022-10-16T06:08:47;12.00;99.90
29551;DHT22;16488;52.396;10.696;2022-10-16T06:11:16;11.80;99.90
29551;DHT22;16488;52.396;10.696;2022-10-16T06:13:42;11.80;99.90
29551;DHT22;16488;52.396;10.696;2022-10-16T06:16:09;11.80;99.90
29551;DHT22;16488;52.396;10.696;2022-10-16T06:18:34;11.80;99.90
29551;DHT22;16488;52.396;10.696;2022-10-16T06:21:07;11.90;99.90
29551;DHT22;16488;52.396;10.696;2022-10-16T06:23:34;11.80;99.90
29551;DHT22;16488;52.396;10.696;2022-10-16T06:26:10;11.90;99.90
29551;DHT22;16488;52.396;10.696;2022-10-16T06:28:36;11.70;99.90
29551;DHT22;16488;52.396;10.696;2022-10-16T06:31:04;11.70;99.90
29551;DHT22;16488;52.396;10.696;2022-10-16T06:33:29;11.80;99.90
29551;DHT22;16488;52.396;10.696;2022-10-16T06:36:28;11.80;99.90
29551;DHT22;16488;52.396;10.696;2022-10-16T06:38:53;11.90;99.90
29551;DHT22;16488;52.396;10.696;2022-10-16T06:41:21;12.00;99.90
29551;DHT22;16488;52.396;10.696;2022-10-16T06:43:47;12.00;99.90
29551;DHT22;16488;52.396;10.696;2022-10-16T06:46:15;12.10;99.90
29551;DHT22;16488;52.396;10.696;2022-10-16T06:48:42;12.10;99.90
29551;DHT22;16488;52.396;10.696;2022-10-16T06:51:14;12.20;99.90
29551;DHT22;16488;52.396;10.696;2022-10-16T06:53:42;12.20;99.90
29551;DHT22;16488;52.396;10.696;2022-10-16T06:56:14;12.20;99.90
29551;DHT22;16488;52.396;10.696;2022-10-16T06:58:41;12.30;99.90
29551;DHT22;16488;52.396;10.696;2022-10-16T07:01:08;12.50;99.90
29551;DHT22;16488;52.396;10.696;2022-10-16T07:03:35;12.70;99.90
29551;DHT22;16488;52.396;10.696;2022-10-16T07:06:02;12.80;99.90
29551;DHT22;16488;52.396;10.696;2022-10-16T07:08:31;13.00;99.90
29551;DHT22;16488;52.396;10.696;2022-10-16T07:11:01;13.20;99.90
29551;DHT22;16488;52.396;10.696;2022-10-16T07:13:27;13.20;99.90
29551;DHT22;16488;52.396;10.696;2022-10-16T07:15:52;13.30;99.90
29551;DHT22;16488;52.396;10.696;2022-10-16T07:18:18;13.50;99.90
29551;DHT22;16488;52.396;10.696;2022-10-16T07:20:43;13.60;99.90
29551;DHT22;16488;52.396;10.696;2022-10-16T07:23:09;13.80;99.90
29551;DHT22;16488;52.396;10.696;2022-10-16T07:25:34;13.90;99.90
29551;DHT22;16488;52.396;10.696;2022-10-16T07:28:00;14.00;99.90
29551;DHT22;16488;52.396;10.696;2022-10-16T07:30:26;14.20;99.90
29551;DHT22;16488;52.396;10.696;2022-10-16T07:32:51;14.40;99.90
29551;DHT22;16488;52.396;10.696;2022-10-16T07:35:17;14.50;99.90
29551;DHT22;16488;52.396;10.696;2022-10-16T07:37:46;14.70;99.90
29551;DHT22;16488;52.396;10.696;2022-10-16T07:40:11;14.80;99.90
29551;DHT22;16488;52.396;10.696;2022-10-16T07:42:37;14.90;99.90
29551;DHT22;16488;52.396;10.696;2022-10-16T07:45:03;15.00;99.90
29551;DHT22;16488;52.396;10.696;2022-10-16T07:47:29;15.10;99.90
29551;DHT22;16488;52.396;10.696;2022-10-16T07:49:54;15.20;99.90
29551;DHT22;16488;52.396;10.696;2022-10-16T07:52:20;15.40;99.90
29551;DHT22;16488;52.396;10.696;2022-10-16T07:54:45;15.50;99.90
29551;DHT22;16488;52.396;10.696;2022-10-16T07:57:11;15.60;99.90
29551;DHT22;16488;52.396;10.696;2022-10-16T07:59:36;15.70;99.90
29551;DHT22;16488;52.396;10.696;2022-10-16T08:02:02;15.80;99.90
29551;DHT22;16488;52.396;10.696;2022-10-16T08:04:28;15.90;99.90
29551;DHT22;16488;52.396;10.696;2022-10-16T08:06:53;15.90;99.90
29551;DHT22;16488;52.396;10.696;2022-10-16T08:09:19;15.90;99.90
29551;DHT22;16488;52.396;10.696;2022-10-16T08:11:45;16.00;99.90
29551;DHT22;16488;52.396;10.696;2022-10-16T08:14:10;16.10;99.90
29551;DHT22;16488;52.396;10.696;2022-10-16T08:16:36;16.20;99.90
29551;DHT22;16488;52.396;10.696;2022-10-16T08:19:02;16.30;99.90
29551;DHT22;16488;52.396;10.696;2022-10-16T08:21:27;16.40;99.90
29551;DHT22;16488;52.396;10.696;2022-10-16T08:23:53;16.40;99.90
29551;DHT22;16488;52.396;10.696;2022-10-16T08:26:20;16.40;99.90
29551;DHT22;16488;52.396;10.696;2022-10-16T08:28:45;16.50;99.90
29551;DHT22;16488;52.396;10.696;2022-10-16T08:31:15;16.50;99.90
29551;DHT22;16488;52.396;10.696;2022-10-16T08:33:43;16.50;99.90
29551;DHT22;16488;52.396;10.696;2022-10-16T08:36:10;16.60;99.90
29551;DHT22;16488;52.396;10.696;2022-10-16T08:38:37;16.70;99.90
29551;DHT22;16488;52.396;10.696;2022-10-16T08:41:36;16.80;99.90
29551;DHT22;16488;52.396;10.696;2022-10-16T08:44:30;16.80;99.90
29551;DHT22;16488;52.396;10.696;2022-10-16T08:50:11;16.80;99.90
29551;DHT22;16488;52.396;10.696;2022-10-16T08:52:40;16.90;99.90
29551;DHT22;16488;52.396;10.696;2022-10-16T08:55:23;16.90;99.90
29551;DHT22;16488;52.396;10.696;2022-10-16T08:57:52;16.90;99.90
29551;DHT22;16488;52.396;10.696;2022-10-16T09:00:17;16.80;99.90
29551;DHT22;16488;52.396;10.696;2022-10-16T09:05:41;16.80;99.90
29551;DHT22;16488;52.396;10.696;2022-10-16T09:08:22;16.90;99.90
29551;DHT22;16488;52.396;10.696;2022-10-16T09:13:59;17.00;99.90
29551;DHT22;16488;52.396;10.696;2022-10-16T09:16:32;17.10;99.90
29551;DHT22;16488;52.396;10.696;2022-10-16T09:19:10;17.20;99.90
29551;DHT22;16488;52.396;10.696;2022-10-16T09:21:42;17.40;99.90
29551;DHT22;16488;52.396;10.696;2022-10-16T09:24:17;17.50;99.90
29551;DHT22;16488;52.396;10.696;2022-10-16T09:26:44;17.50;99.90
29551;DHT22;16488;52.396;10.696;2022-10-16T09:29:14;17.60;99.90
29551;DHT22;16488;52.396;10.696;2022-10-16T09:31:42;17.60;99.90
29551;DHT22;16488;52.396;10.696;2022-10-16T09:34:13;17.50;99.90
29551;DHT22;16488;52.396;10.696;2022-10-16T09:36:44;17.40;99.90
29551;DHT22;16488;52.396;10.696;2022-10-16T09:39:12;17.40;99.90
29551;DHT22;16488;52.396;10.696;2022-10-16T09:41:39;17.40;99.90
29551;DHT22;16488;52.396;10.696;2022-10-16T09:44:24;17.40;99.90
29551;DHT22;16488;52.396;10.696;2022-10-16T09:47:20;17.30;99.90
29551;DHT22;16488;52.396;10.696;2022-10-16T09:49:59;17.40;99.90
29551;DHT22;16488;52.396;10.696;2022-10-16T09:52:28;17.30;99.90
29551;DHT22;16488;52.396;10.696;2022-10-16T09:55:00;17.30;99.90
29551;DHT22;16488;52.396;10.696;2022-10-16T09:57:27;17.30;99.90
29551;DHT22;16488;52.396;10.696;2022-10-16T09:59:55;17.40;99.90
29551;DHT22;16488;52.396;10.696;2022-10-16T10:02:39;17.70;99.90
29551;DHT22;16488;52.396;10.696;2022-10-16T10:05:05;18.10;99.90
29551;DHT22;16488;52.396;10.696;2022-10-16T10:07:42;18.30;99.90
29551;DHT22;16488;52.396;10.696;2022-10-16T10:10:21;18.60;99.90
29551;DHT22;16488;52.396;10.696;2022-10-16T10:12:47;18.80;99.90
29551;DHT22;16488;52.396;10.696;2022-10-16T10:15:13;18.70;99.90
29551;DHT22;16488;52.396;10.696;2022-10-16T10:22:45;18.60;99.90
29551;DHT22;16488;52.396;10.696;2022-10-16T10:25:19;18.70;99.90
29551;DHT22;16488;52.396;10.696;2022-10-16T10:30:53;18.60;99.90
29551;DHT22;16488;52.396;10.696;2022-10-16T10:39:20;18.60;99.90
29551;DHT22;16488;52.396;10.696;2022-10-16T10:42:16;18.50;99.90
29551;DHT22;16488;52.396;10.696;2022-10-16T10:47:47;18.60;99.90
29551;DHT22;16488;52.396;10.696;2022-10-16T10:50:41;18.80;99.90
29551;DHT22;16488;52.396;10.696;2022-10-16T10:53:33;19.00;99.90
29551;DHT22;16488;52.396;10.696;2022-10-16T11:01:50;18.60;99.90
29551;DHT22;16488;52.396;10.696;2022-10-16T11:07:15;18.60;99.90
29551;DHT22;16488;52.396;10.696;2022-10-16T11:09:48;18.70;99.90
29551;DHT22;16488;52.396;10.696;2022-10-16T11:12:34;18.80;99.90
29551;DHT22;16488;52.396;10.696;2022-10-16T11:15:21;18.90;99.90
29551;DHT22;16488;52.396;10.696;2022-10-16T11:18:10;19.00;99.90
29551;DHT22;16488;52.396;10.696;2022-10-16T11:20:46;19.00;99.90
29551;DHT22;16488;52.396;10.696;2022-10-16T11:23:31;19.00;99.90
29551;DHT22;16488;52.396;10.696;2022-10-16T11:26:02;19.00;99.90
29551;DHT22;16488;52.396;10.696;2022-10-16T11:28:45;18.90;99.90
29551;DHT22;16488;52.396;10.696;2022-10-16T11:31:41;18.90;99.90
29551;DHT22;16488;52.396;10.696;2022-10-16T11:34:25;19.00;99.90
29551;DHT22;16488;52.396;10.696;2022-10-16T11:37:02;19.20;99.90
29551;DHT22;16488;52.396;10.696;2022-10-16T11:39:30;19.20;99.90
29551;DHT22;16488;52.396;10.696;2022-10-16T11:42:19;19.20;99.90
29551;DHT22;16488;52.396;10.696;2022-10-16T11:45:13;18.90;99.90
29551;DHT22;16488;52.396;10.696;2022-10-16T11:47:56;18.80;99.90
29551;DHT22;16488;52.396;10.696;2022-10-16T11:50:31;18.90;99.90
29551;DHT22;16488;52.396;10.696;2022-10-16T11:55:36;18.90;99.90
29551;DHT22;16488;52.396;10.696;2022-10-16T11:58:22;18.80;99.90
29551;DHT22;16488;52.396;10.696;2022-10-16T12:04:13;18.70;99.90
29551;DHT22;16488;52.396;10.696;2022-10-16T12:06:57;18.70;99.90
29551;DHT22;16488;52.396;10.696;2022-10-16T12:09:31;18.70;99.90
29551;DHT22;16488;52.396;10.696;2022-10-16T12:11:57;18.50;99.90
29551;DHT22;16488;52.396;10.696;2022-10-16T12:17:25;18.60;99.90
29551;DHT22;16488;52.396;10.696;2022-10-16T12:22:37;19.00;99.90
29551;DHT22;16488;52.396;10.696;2022-10-16T12:25:23;19.20;99.90
29551;DHT22;16488;52.396;10.696;2022-10-16T12:30:34;19.40;99.10
29551;DHT22;16488;52.396;10.696;2022-10-16T12:33:05;19.40;99.90
29551;DHT22;16488;52.396;10.696;2022-10-16T12:35:44;19.30;99.20
29551;DHT22;16488;52.396;10.696;2022-10-16T12:38:28;19.20;99.90
29551;DHT22;16488;52.396;10.696;2022-10-16T12:41:04;19.20;99.90
29551;DHT22;16488;52.396;10.696;2022-10-16T12:43:37;19.60;99.90
29551;DHT22;16488;52.396;10.696;2022-10-16T12:48:40;20.00;98.20
29551;DHT22;16488;52.396;10.696;2022-10-16T12:53:36;19.60;97.40
29551;DHT22;16488;52.396;10.696;2022-10-16T12:56:19;19.60;96.50
29551;DHT22;16488;52.396;10.696;2022-10-16T12:58:50;19.80;96.50
29551;DHT22;16488;52.396;10.696;2022-10-16T13:04:55;19.60;95.50
29551;DHT22;16488;52.396;10.696;2022-10-16T13:13:11;20.20;96.10
29551;DHT22;16488;52.396;10.696;2022-10-16T13:16:10;20.50;96.30
29551;DHT22;16488;52.396;10.696;2022-10-16T13:21:42;20.50;94.40
29551;DHT22;16488;52.396;10.696;2022-10-16T13:29:41;20.30;94.80
29551;DHT22;16488;52.396;10.696;2022-10-16T13:32:10;20.20;94.80
29551;DHT22;16488;52.396;10.696;2022-10-16T13:34:47;19.90;94.60
29551;DHT22;16488;52.396;10.696;2022-10-16T13:37:23;19.60;95.70
29551;DHT22;16488;52.396;10.696;2022-10-16T13:39:49;19.40;96.40
29551;DHT22;16488;52.396;10.696;2022-10-16T13:44:52;18.90;96.10
29551;DHT22;16488;52.396;10.696;2022-10-16T13:47:23;18.90;96.70
29551;DHT22;16488;52.396;10.696;2022-10-16T13:50:13;18.80;96.10
29551;DHT22;16488;52.396;10.696;2022-10-16T13:52:39;18.80;96.40
29551;DHT22;16488;52.396;10.696;2022-10-16T13:55:12;18.70;96.30
29551;DHT22;16488;52.396;10.696;2022-10-16T13:57:38;18.70;96.60
29551;DHT22;16488;52.396;10.696;2022-10-16T14:00:24;18.70;97.00
29551;DHT22;16488;52.396;10.696;2022-10-16T14:02:55;18.60;97.30
29551;DHT22;16488;52.396;10.696;2022-10-16T14:05:23;18.70;97.10
29551;DHT22;16488;52.396;10.696;2022-10-16T14:07:50;18.90;96.60
29551;DHT22;16488;52.396;10.696;2022-10-16T14:10:23;19.30;96.60
29551;DHT22;16488;52.396;10.696;2022-10-16T14:12:58;19.60;95.70
29551;DHT22;16488;52.396;10.696;2022-10-16T14:15:24;19.70;95.50
29551;DHT22;16488;52.396;10.696;2022-10-16T14:17:51;19.70;95.40
29551;DHT22;16488;52.396;10.696;2022-10-16T14:20:18;19.70;95.30
29551;DHT22;16488;52.396;10.696;2022-10-16T14:22:44;19.80;95.70
29551;DHT22;16488;52.396;10.696;2022-10-16T14:27:56;19.70;95.30
29551;DHT22;16488;52.396;10.696;2022-10-16T14:30:22;19.60;94.90
29551;DHT22;16488;52.396;10.696;2022-10-16T14:32:59;19.60;95.80
29551;DHT22;16488;52.396;10.696;2022-10-16T14:35:26;19.80;94.90
29551;DHT22;16488;52.396;10.696;2022-10-16T14:37:54;19.80;95.00
29551;DHT22;16488;52.396;10.696;2022-10-16T14:40:25;19.70;95.00
29551;DHT22;16488;52.396;10.696;2022-10-16T14:42:53;19.70;95.30
29551;DHT22;16488;52.396;10.696;2022-10-16T14:45:21;19.60;95.30
29551;DHT22;16488;52.396;10.696;2022-10-16T14:48:00;19.60;96.00
29551;DHT22;16488;52.396;10.696;2022-10-16T14:50:27;19.60;96.70
29551;DHT22;16488;52.396;10.696;2022-10-16T14:52:53;19.60;96.10
29551;DHT22;16488;52.396;10.696;2022-10-16T14:55:18;19.40;95.60
29551;DHT22;16488;52.396;10.696;2022-10-16T14:57:44;19.30;97.00
29551;DHT22;16488;52.396;10.696;2022-10-16T15:02:36;18.90;96.30
29551;DHT22;16488;52.396;10.696;2022-10-16T15:05:14;18.90;96.30
29551;DHT22;16488;52.396;10.696;2022-10-16T15:07:40;18.80;97.30
29551;DHT22;16488;52.396;10.696;2022-10-16T15:10:06;18.80;96.90
29551;DHT22;16488;52.396;10.696;2022-10-16T15:12:32;18.70;97.60
29551;DHT22;16488;52.396;10.696;2022-10-16T15:14:57;18.70;97.30
29551;DHT22;16488;52.396;10.696;2022-10-16T15:17:23;18.70;97.70
29551;DHT22;16488;52.396;10.696;2022-10-16T15:19:48;18.80;97.60
29551;DHT22;16488;52.396;10.696;2022-10-16T15:22:14;18.70;97.60
29551;DHT22;16488;52.396;10.696;2022-10-16T15:24:39;18.60;97.80
29551;DHT22;16488;52.396;10.696;2022-10-16T15:27:05;18.50;97.60
29551;DHT22;16488;52.396;10.696;2022-10-16T15:29:30;18.40;97.80
29551;DHT22;16488;52.396;10.696;2022-10-16T15:31:56;18.40;98.30
29551;DHT22;16488;52.396;10.696;2022-10-16T15:34:22;18.40;98.20
29551;DHT22;16488;52.396;10.696;2022-10-16T15:36:47;18.40;97.90
29551;DHT22;16488;52.396;10.696;2022-10-16T15:39:15;18.40;97.70
29551;DHT22;16488;52.396;10.696;2022-10-16T15:41:42;18.40;98.30
29551;DHT22;16488;52.396;10.696;2022-10-16T15:44:08;18.30;98.50
29551;DHT22;16488;52.396;10.696;2022-10-16T15:46:33;18.30;98.00
29551;DHT22;16488;52.396;10.696;2022-10-16T15:49:00;18.20;98.50
29551;DHT22;16488;52.396;10.696;2022-10-16T15:51:26;18.10;99.80
29551;DHT22;16488;52.396;10.696;2022-10-16T15:53:57;18.10;99.90
29551;DHT22;16488;52.396;10.696;2022-10-16T15:56:24;18.00;99.90
29551;DHT22;16488;52.396;10.696;2022-10-16T15:58:51;17.80;99.90
29551;DHT22;16488;52.396;10.696;2022-10-16T16:01:17;17.70;99.90
29551;DHT22;16488;52.396;10.696;2022-10-16T16:03:43;17.50;99.90
29551;DHT22;16488;52.396;10.696;2022-10-16T16:06:11;17.30;99.90
29551;DHT22;16488;52.396;10.696;2022-10-16T16:08:37;17.20;99.90
29551;DHT22;16488;52.396;10.696;2022-10-16T16:11:04;17.10;99.90
29551;DHT22;16488;52.396;10.696;2022-10-16T16:13:30;16.90;99.90
29551;DHT22;16488;52.396;10.696;2022-10-16T16:15:56;16.60;99.90
29551;DHT22;16488;52.396;10.696;2022-10-16T16:18:22;16.30;99.90
29551;DHT22;16488;52.396;10.696;2022-10-16T16:20:49;16.10;99.90
29551;DHT22;16488;52.396;10.696;2022-10-16T16:23:15;15.90;99.90
29551;DHT22;16488;52.396;10.696;2022-10-16T16:25:40;15.70;99.90
29551;DHT22;16488;52.396;10.696;2022-10-16T16:28:06;15.50;99.90
29551;DHT22;16488;52.396;10.696;2022-10-16T16:30:32;15.40;99.90
29551;DHT22;16488;52.396;10.696;2022-10-16T16:32:58;15.30;99.90
29551;DHT22;16488;52.396;10.696;2022-10-16T16:35:23;15.10;99.90
29551;DHT22;16488;52.396;10.696;2022-10-16T16:37:49;14.90;99.90
29551;DHT22;16488;52.396;10.696;2022-10-16T16:40:14;14.70;99.90
29551;DHT22;16488;52.396;10.696;2022-10-16T16:42:40;14.50;99.90
29551;DHT22;16488;52.396;10.696;2022-10-16T16:45:06;14.40;99.90
29551;DHT22;16488;52.396;10.696;2022-10-16T16:47:32;14.30;99.90
29551;DHT22;16488;52.396;10.696;2022-10-16T16:49:57;14.10;99.90
29551;DHT22;16488;52.396;10.696;2022-10-16T16:52:23;14.00;99.90
29551;DHT22;16488;52.396;10.696;2022-10-16T16:54:48;13.90;99.90
29551;DHT22;16488;52.396;10.696;2022-10-16T16:57:18;13.80;99.90